createdAt,value
2018-09-01T00:00:01.803Z,0.00
2018-09-01T00:01:02.045Z,0.00
2018-09-01T00:02:02.279Z,0.00
2018-09-01T00:03:02.518Z,0.00
2018-09-01T00:04:02.759Z,0.00
2018-09-01T00:05:02.995Z,0.00
2018-09-01T00:06:03.226Z,0.00
2018-09-01T00:07:03.465Z,0.00
2018-09-01T00:08:03.703Z,0.00
2018-09-01T00:09:03.942Z,0.00
2018-09-01T00:10:04.180Z,0.00
2018-09-01T00:11:04.468Z,0.00
2018-09-01T00:12:04.657Z,0.00
2018-09-01T00:13:04.896Z,0.00
2018-09-01T00:14:05.137Z,0.00
2018-09-01T00:15:05.372Z,0.00
2018-09-01T00:16:05.614Z,0.00
2018-09-01T00:17:05.853Z,0.00
2018-09-01T00:18:06.085Z,0.00
2018-09-01T00:19:06.329Z,0.00
2018-09-01T00:20:06.566Z,0.00
2018-09-01T00:21:06.804Z,0.00
2018-09-01T00:22:07.042Z,0.00
2018-09-01T00:23:07.282Z,0.00
2018-09-01T00:24:07.520Z,0.00
2018-09-01T00:25:07.758Z,0.00
2018-09-01T00:26:07.996Z,0.00
2018-09-01T00:27:08.236Z,0.00
2018-09-01T00:28:08.477Z,0.00
2018-09-01T00:29:08.714Z,0.00
2018-09-01T00:30:08.954Z,0.00
2018-09-01T00:31:09.196Z,0.00
2018-09-01T00:32:09.431Z,0.00
2018-09-01T00:33:09.670Z,0.00
2018-09-01T00:34:09.909Z,0.00
2018-09-01T00:35:10.146Z,0.00
2018-09-01T00:36:10.390Z,0.00
2018-09-01T00:37:10.624Z,0.00
2018-09-01T00:38:10.863Z,0.00
2018-09-01T00:39:11.106Z,0.00
2018-09-01T00:40:11.339Z,0.00
2018-09-01T00:41:11.576Z,0.00
2018-09-01T00:42:11.816Z,0.00
2018-09-01T00:43:12.055Z,0.00
2018-09-01T00:44:12.294Z,0.00
2018-09-01T00:45:12.543Z,0.00
2018-09-01T00:46:12.764Z,0.00
2018-09-01T00:47:13.001Z,0.00
2018-09-01T00:48:13.239Z,0.00
2018-09-01T00:49:21.101Z,0.00
2018-09-01T00:50:21.410Z,0.00
2018-09-01T00:51:14.077Z,0.00
2018-09-01T00:52:14.315Z,0.00
2018-09-01T00:53:14.552Z,0.00
2018-09-01T00:54:14.792Z,0.00
2018-09-01T00:55:15.032Z,0.00
2018-09-01T00:56:15.268Z,0.00
2018-09-01T00:57:15.504Z,0.00
2018-09-01T00:58:15.744Z,0.00
2018-09-01T00:59:15.980Z,0.00
2018-09-01T01:00:16.217Z,0.00
2018-09-01T01:01:16.455Z,0.00
2018-09-01T01:02:16.691Z,0.00
2018-09-01T01:03:16.929Z,0.00
2018-09-01T01:04:17.165Z,0.00
2018-09-01T01:05:17.401Z,0.00
2018-09-01T01:06:17.640Z,0.00
2018-09-01T01:07:17.880Z,0.00
2018-09-01T01:08:25.761Z,0.00
2018-09-01T01:09:18.429Z,0.00
2018-09-01T01:10:18.666Z,0.00
2018-09-01T01:11:18.905Z,0.00
2018-09-01T01:12:19.142Z,0.00
2018-09-01T01:13:19.381Z,0.00
2018-09-01T01:14:19.617Z,0.00
2018-09-01T01:15:19.854Z,0.00
2018-09-01T01:16:20.091Z,0.00
2018-09-01T01:17:20.329Z,0.00
2018-09-01T01:18:20.570Z,0.00
2018-09-01T01:19:20.808Z,0.00
2018-09-01T01:20:21.046Z,0.00
2018-09-01T01:21:21.281Z,0.00
2018-09-01T01:22:21.519Z,0.00
2018-09-01T01:23:21.759Z,0.00
2018-09-01T01:24:21.995Z,0.00
2018-09-01T01:25:22.234Z,0.00
2018-09-01T01:26:22.470Z,0.00
2018-09-01T01:27:22.709Z,0.00
2018-09-01T01:28:22.944Z,0.00
2018-09-01T01:29:23.179Z,0.00
2018-09-01T01:30:23.424Z,0.00
2018-09-01T01:31:23.656Z,0.00
2018-09-01T01:32:23.893Z,0.00
2018-09-01T01:33:24.131Z,0.00
2018-09-01T01:34:24.368Z,0.00
2018-09-01T01:35:24.607Z,0.00
2018-09-01T01:36:24.848Z,0.00
2018-09-01T01:37:25.082Z,0.00
2018-09-01T01:38:25.320Z,0.00
2018-09-01T01:39:25.557Z,0.00
2018-09-01T01:40:25.795Z,0.00
2018-09-01T01:41:26.032Z,0.00
2018-09-01T01:42:26.268Z,0.00
2018-09-01T01:43:26.505Z,0.00
2018-09-01T01:44:26.744Z,0.00
2018-09-01T01:45:26.981Z,0.00
2018-09-01T01:46:27.216Z,0.00
2018-09-01T01:47:27.458Z,0.00
2018-09-01T01:48:27.692Z,0.00
2018-09-01T01:49:27.981Z,0.00
2018-09-01T01:50:28.168Z,0.00
2018-09-01T01:51:28.404Z,0.00
2018-09-01T01:52:28.642Z,0.00
2018-09-01T01:53:28.887Z,0.00
2018-09-01T01:54:29.113Z,0.00
2018-09-01T01:55:29.353Z,0.00
2018-09-01T01:56:29.587Z,0.00
2018-09-01T01:57:29.824Z,0.00
2018-09-01T01:58:30.059Z,0.00
2018-09-01T01:59:30.297Z,0.00
2018-09-01T02:00:30.551Z,0.00
2018-09-01T02:01:30.776Z,0.00
2018-09-01T02:02:31.013Z,0.00
2018-09-01T02:03:31.252Z,0.00
2018-09-01T02:04:31.490Z,0.00
2018-09-01T02:05:31.728Z,0.00
2018-09-01T02:06:31.967Z,0.00
2018-09-01T02:07:32.206Z,0.00
2018-09-01T02:08:32.440Z,0.00
2018-09-01T02:09:32.682Z,0.00
2018-09-01T02:10:32.921Z,0.00
2018-09-01T02:11:33.152Z,0.00
2018-09-01T02:12:33.389Z,0.00
2018-09-01T02:13:33.629Z,0.00
2018-09-01T02:14:33.871Z,0.00
2018-09-01T02:15:34.109Z,0.00
2018-09-01T02:16:34.344Z,0.00
2018-09-01T02:17:34.581Z,0.00
2018-09-01T02:18:34.821Z,0.00
2018-09-01T02:19:35.057Z,0.00
2018-09-01T02:20:35.295Z,0.00
2018-09-01T02:21:35.534Z,0.00
2018-09-01T02:22:35.761Z,0.00
2018-09-01T02:23:36.000Z,0.00
2018-09-01T02:24:36.237Z,0.00
2018-09-01T02:25:36.474Z,0.00
2018-09-01T02:26:36.711Z,0.00
2018-09-01T02:27:36.949Z,0.00
2018-09-01T02:28:37.186Z,0.00
2018-09-01T02:29:37.423Z,0.00
2018-09-01T02:30:37.651Z,0.00
2018-09-01T02:31:37.888Z,0.00
2018-09-01T02:32:38.125Z,0.00
2018-09-01T02:33:38.376Z,0.00
2018-09-01T02:34:38.597Z,0.00
2018-09-01T02:35:38.838Z,0.00
2018-09-01T02:36:39.078Z,0.00
2018-09-01T02:37:39.315Z,0.00
2018-09-01T02:38:39.551Z,0.00
2018-09-01T02:39:39.792Z,0.00
2018-09-01T02:40:40.026Z,0.00
2018-09-01T02:41:40.249Z,0.00
2018-09-01T02:42:40.504Z,0.00
2018-09-01T02:43:40.745Z,0.00
2018-09-01T02:44:40.982Z,0.00
2018-09-01T02:45:41.225Z,0.00
2018-09-01T02:46:41.458Z,0.00
2018-09-01T02:47:41.696Z,0.00
2018-09-01T02:48:41.930Z,0.00
2018-09-01T02:49:42.168Z,0.00
2018-09-01T02:50:42.413Z,0.00
2018-09-01T02:51:42.639Z,0.00
2018-09-01T02:52:42.875Z,0.00
2018-09-01T02:53:50.733Z,0.00
2018-09-01T02:54:43.402Z,0.00
2018-09-01T02:55:43.643Z,0.00
2018-09-01T02:56:43.881Z,0.00
2018-09-01T02:57:44.108Z,0.00
2018-09-01T02:58:44.350Z,0.00
2018-09-01T02:59:44.583Z,0.00
2018-09-01T03:00:44.819Z,0.00
2018-09-01T03:01:45.054Z,0.00
2018-09-01T03:02:45.293Z,0.00
2018-09-01T03:03:45.534Z,0.00
2018-09-01T03:04:45.771Z,0.00
2018-09-01T03:05:46.008Z,0.00
2018-09-01T03:06:46.245Z,0.00
2018-09-01T03:07:46.483Z,0.00
2018-09-01T03:08:46.721Z,0.00
2018-09-01T03:09:46.960Z,0.00
2018-09-01T03:10:47.194Z,0.00
2018-09-01T03:11:47.440Z,0.00
2018-09-01T03:12:47.664Z,0.00
2018-09-01T03:13:47.901Z,0.00
2018-09-01T03:14:48.140Z,0.00
2018-09-01T03:15:48.374Z,0.00
2018-09-01T03:16:48.619Z,0.00
2018-09-01T03:17:48.849Z,0.00
2018-09-01T03:18:49.082Z,0.00
2018-09-01T03:19:49.321Z,0.00
2018-09-01T03:20:49.572Z,0.00
2018-09-01T03:21:49.795Z,0.00
2018-09-01T03:22:50.035Z,0.00
2018-09-01T03:23:50.272Z,0.00
2018-09-01T03:24:50.527Z,0.00
2018-09-01T03:25:58.370Z,0.00
2018-09-01T03:26:51.040Z,0.00
2018-09-01T03:27:51.279Z,0.00
2018-09-01T03:28:51.513Z,0.00
2018-09-01T03:29:51.753Z,0.00
2018-09-01T03:30:51.988Z,0.00
2018-09-01T03:31:52.225Z,0.00
2018-09-01T03:32:52.467Z,0.00
2018-09-01T03:33:52.702Z,0.00
2018-09-01T03:34:52.935Z,0.00
2018-09-01T03:35:53.175Z,0.00
2018-09-01T03:36:53.411Z,0.00
2018-09-01T03:37:53.645Z,0.00
2018-09-01T03:38:53.880Z,0.00
2018-09-01T03:39:54.116Z,0.00
2018-09-01T03:40:54.343Z,0.00
2018-09-01T03:41:54.585Z,0.00
2018-09-01T03:42:54.824Z,0.00
2018-09-01T03:43:55.059Z,0.00
2018-09-01T03:44:55.298Z,0.00
2018-09-01T03:45:55.539Z,0.00
2018-09-01T03:46:55.775Z,0.00
2018-09-01T03:47:56.009Z,0.00
2018-09-01T03:48:56.245Z,0.00
2018-09-01T03:49:56.480Z,0.00
2018-09-01T03:50:56.717Z,0.00
2018-09-01T03:51:56.955Z,0.00
2018-09-01T03:52:57.188Z,0.00
2018-09-01T03:53:57.429Z,0.00
2018-09-01T03:54:57.667Z,0.00
2018-09-01T03:55:57.911Z,0.00
2018-09-01T03:56:58.143Z,0.00
2018-09-01T03:57:58.381Z,0.00
2018-09-01T03:58:58.613Z,0.00
2018-09-01T03:59:58.853Z,0.00
2018-09-01T04:00:59.086Z,0.00
2018-09-01T04:01:59.326Z,0.00
2018-09-01T04:02:59.558Z,4.00
2018-09-01T04:03:59.790Z,4.00
2018-09-01T04:05:00.024Z,4.00
2018-09-01T04:06:00.260Z,4.00
2018-09-01T04:07:00.496Z,4.00
2018-09-01T04:08:00.735Z,8.00
2018-09-01T04:09:00.968Z,8.00
2018-09-01T04:10:01.206Z,12.00
2018-09-01T04:11:01.435Z,12.00
2018-09-01T04:12:01.684Z,12.00
2018-09-01T04:13:01.916Z,16.00
2018-09-01T04:14:02.175Z,20.00
2018-09-01T04:15:02.384Z,20.00
2018-09-01T04:16:02.622Z,28.00
2018-09-01T04:17:02.861Z,32.00
2018-09-01T04:18:03.095Z,32.00
2018-09-01T04:19:03.332Z,40.00
2018-09-01T04:20:03.568Z,48.00
2018-09-01T04:21:03.810Z,56.00
2018-09-01T04:22:04.034Z,64.00
2018-09-01T04:23:04.269Z,72.00
2018-09-01T04:24:04.507Z,84.00
2018-09-01T04:25:04.748Z,96.00
2018-09-01T04:26:04.980Z,108.00
2018-09-01T04:27:05.212Z,124.00
2018-09-01T04:28:05.449Z,140.00
2018-09-01T04:29:05.684Z,156.00
2018-09-01T04:30:05.924Z,176.00
2018-09-01T04:31:06.156Z,192.00
2018-09-01T04:32:06.409Z,208.00
2018-09-01T04:33:06.638Z,232.00
2018-09-01T04:34:06.871Z,256.00
2018-09-01T04:35:07.113Z,280.00
2018-09-01T04:36:07.353Z,304.00
2018-09-01T04:37:07.575Z,332.00
2018-09-01T04:38:07.802Z,356.00
2018-09-01T04:39:08.046Z,384.00
2018-09-01T04:40:08.285Z,412.00
2018-09-01T04:41:08.524Z,440.00
2018-09-01T04:42:08.764Z,472.00
2018-09-01T04:43:08.994Z,500.00
2018-09-01T04:44:09.233Z,528.00
2018-09-01T04:45:09.467Z,556.00
2018-09-01T04:46:09.721Z,580.00
2018-09-01T04:47:09.988Z,608.00
2018-09-01T04:48:10.175Z,632.00
2018-09-01T04:49:10.412Z,664.00
2018-09-01T04:50:10.645Z,696.00
2018-09-01T04:51:10.876Z,728.00
2018-09-01T04:52:11.126Z,760.00
2018-09-01T04:53:11.348Z,792.00
2018-09-01T04:54:11.576Z,820.00
2018-09-01T04:55:11.815Z,848.00
2018-09-01T04:56:12.053Z,876.00
2018-09-01T04:57:12.289Z,904.00
2018-09-01T04:58:12.526Z,936.00
2018-09-01T04:59:12.762Z,968.00
2018-09-01T05:00:12.999Z,992.00
2018-09-01T05:01:13.443Z,1020.00
2018-09-01T05:02:13.463Z,1048.00
2018-09-01T05:03:13.700Z,1072.00
2018-09-01T05:04:13.943Z,1112.00
2018-09-01T05:05:14.169Z,1152.00
2018-09-01T05:06:14.407Z,1192.00
2018-09-01T05:07:14.634Z,1224.00
2018-09-01T05:08:14.874Z,1264.00
2018-09-01T05:09:15.111Z,1308.00
2018-09-01T05:10:15.346Z,1364.00
2018-09-01T05:11:15.582Z,1428.00
2018-09-01T05:12:15.826Z,1472.00
2018-09-01T05:13:16.053Z,1540.00
2018-09-01T05:14:16.290Z,1616.00
2018-09-01T05:15:16.529Z,1696.00
2018-09-01T05:16:16.772Z,1784.00
2018-09-01T05:17:17.002Z,1872.00
2018-09-01T05:18:17.239Z,1972.00
2018-09-01T05:19:17.464Z,2080.00
2018-09-01T05:20:17.700Z,2160.00
2018-09-01T05:21:17.937Z,2260.00
2018-09-01T05:22:18.178Z,2384.00
2018-09-01T05:23:18.406Z,2516.00
2018-09-01T05:24:18.635Z,2660.00
2018-09-01T05:25:18.872Z,2828.00
2018-09-01T05:26:19.110Z,3012.00
2018-09-01T05:27:19.351Z,3228.00
2018-09-01T05:28:19.585Z,3464.00
2018-09-01T05:29:19.818Z,3720.00
2018-09-01T05:30:20.050Z,3956.00
2018-09-01T05:31:20.292Z,4112.00
2018-09-01T05:32:20.530Z,4336.00
2018-09-01T05:33:20.766Z,4552.00
2018-09-01T05:34:21.002Z,4692.00
2018-09-01T05:35:21.241Z,4788.00
2018-09-01T05:36:21.503Z,4816.00
2018-09-01T05:37:21.721Z,4832.00
2018-09-01T05:38:21.949Z,4840.00
2018-09-01T05:39:22.188Z,4856.00
2018-09-01T05:40:22.423Z,4876.00
2018-09-01T05:41:22.662Z,4836.00
2018-09-01T05:42:22.899Z,4840.00
2018-09-01T05:43:23.137Z,4928.00
2018-09-01T05:44:23.373Z,4964.00
2018-09-01T05:45:23.611Z,5032.00
2018-09-01T05:46:23.843Z,5068.00
2018-09-01T05:47:24.073Z,5072.00
2018-09-01T05:48:24.317Z,5144.00
2018-09-01T05:49:24.554Z,5304.00
2018-09-01T05:50:24.795Z,5484.00
2018-09-01T05:51:25.030Z,5640.00
2018-09-01T05:52:25.262Z,5788.00
2018-09-01T05:53:25.520Z,5896.00
2018-09-01T05:54:25.734Z,5992.00
2018-09-01T05:55:25.973Z,6104.00
2018-09-01T05:56:26.214Z,6128.00
2018-09-01T05:57:26.447Z,6076.00
2018-09-01T05:58:26.686Z,5936.00
2018-09-01T05:59:26.923Z,5840.00
2018-09-01T06:00:27.176Z,5616.00
2018-09-01T06:01:27.400Z,5464.00
2018-09-01T06:02:27.634Z,5364.00
2018-09-01T06:03:27.880Z,5256.00
2018-09-01T06:04:28.109Z,5208.00
2018-09-01T06:05:28.348Z,5372.00
2018-09-01T06:06:28.734Z,5596.00
2018-09-01T06:07:28.834Z,5796.00
2018-09-01T06:08:29.057Z,6000.00
2018-09-01T06:09:29.329Z,6200.00
2018-09-01T06:10:29.530Z,6488.00
2018-09-01T06:11:29.775Z,6700.00
2018-09-01T06:12:30.007Z,6832.00
2018-09-01T06:13:30.238Z,7024.00
2018-09-01T06:14:30.474Z,7120.00
2018-09-01T06:15:30.715Z,7036.00
2018-09-01T06:16:30.963Z,7044.00
2018-09-01T06:17:31.234Z,7128.00
2018-09-01T06:18:31.422Z,7068.00
2018-09-01T06:19:31.653Z,7048.00
2018-09-01T06:20:31.897Z,7008.00
2018-09-01T06:21:32.144Z,6920.00
2018-09-01T06:22:32.360Z,6680.00
2018-09-01T06:23:32.596Z,6500.00
2018-09-01T06:24:32.840Z,6468.00
2018-09-01T06:25:33.073Z,6248.00
2018-09-01T06:26:33.316Z,5988.00
2018-09-01T06:27:33.543Z,5992.00
2018-09-01T06:28:33.787Z,6096.00
2018-09-01T06:29:34.026Z,6272.00
2018-09-01T06:30:34.263Z,6524.00
2018-09-01T06:31:34.499Z,6960.00
2018-09-01T06:32:34.743Z,7776.00
2018-09-01T06:33:34.975Z,8296.00
2018-09-01T06:34:35.260Z,8632.00
2018-09-01T06:35:35.448Z,9200.00
2018-09-01T06:36:35.702Z,9508.00
2018-09-01T06:37:35.955Z,11420.00
2018-09-01T06:38:36.151Z,10944.00
2018-09-01T06:39:36.388Z,11236.00
2018-09-01T06:40:36.632Z,9776.00
2018-09-01T06:41:36.866Z,8888.00
2018-09-01T06:42:37.107Z,7776.00
2018-09-01T06:43:37.356Z,7464.00
2018-09-01T06:44:37.579Z,7268.00
2018-09-01T06:45:37.834Z,7304.00
2018-09-01T06:46:38.046Z,7484.00
2018-09-01T06:47:38.287Z,7700.00
2018-09-01T06:48:38.535Z,7820.00
2018-09-01T06:49:38.745Z,7976.00
2018-09-01T06:50:38.984Z,8132.00
2018-09-01T06:51:39.254Z,8024.00
2018-09-01T06:52:39.458Z,8236.00
2018-09-01T06:53:39.701Z,8376.00
2018-09-01T06:54:39.937Z,8960.00
2018-09-01T06:55:40.177Z,9268.00
2018-09-01T06:56:40.415Z,11884.00
2018-09-01T06:57:40.654Z,12372.00
2018-09-01T06:58:48.538Z,10420.00
2018-09-01T06:59:41.193Z,10916.00
2018-09-01T07:00:41.443Z,11532.00
2018-09-01T07:01:41.672Z,9732.00
2018-09-01T07:02:41.909Z,8788.00
2018-09-01T07:03:42.149Z,8372.00
2018-09-01T07:04:42.405Z,8292.00
2018-09-01T07:05:42.634Z,8352.00
2018-09-01T07:06:42.870Z,8488.00
2018-09-01T07:07:43.103Z,8720.00
2018-09-01T07:08:43.376Z,9080.00
2018-09-01T07:09:43.583Z,10424.00
2018-09-01T07:10:43.821Z,14764.00
2018-09-01T07:11:44.057Z,12256.00
2018-09-01T07:12:44.296Z,10792.00
2018-09-01T07:13:44.541Z,9704.00
2018-09-01T07:14:44.772Z,9660.00
2018-09-01T07:15:45.015Z,9928.00
2018-09-01T07:16:45.248Z,10468.00
2018-09-01T07:17:45.485Z,10308.00
2018-09-01T07:18:45.726Z,10204.00
2018-09-01T07:19:45.964Z,9988.00
2018-09-01T07:20:46.206Z,10128.00
2018-09-01T07:21:46.443Z,10340.00
2018-09-01T07:22:46.686Z,10664.00
2018-09-01T07:23:46.922Z,11096.00
2018-09-01T07:24:47.160Z,11912.00
2018-09-01T07:25:47.401Z,13704.00
2018-09-01T07:26:47.642Z,22368.00
2018-09-01T07:27:47.878Z,21952.00
2018-09-01T07:28:48.122Z,24736.00
2018-09-01T07:29:48.353Z,24896.00
2018-09-01T07:30:48.895Z,25344.00
2018-09-01T07:31:48.842Z,30464.00
2018-09-01T07:32:49.081Z,33760.00
2018-09-01T07:33:49.321Z,37312.00
2018-09-01T07:34:49.561Z,39968.00
2018-09-01T07:35:49.804Z,43520.00
2018-09-01T07:36:50.043Z,43200.00
2018-09-01T07:37:50.290Z,34816.00
2018-09-01T07:38:50.527Z,27712.00
2018-09-01T07:39:50.770Z,24448.00
2018-09-01T07:40:51.010Z,22624.00
2018-09-01T07:41:51.256Z,21824.00
2018-09-01T07:42:51.502Z,21440.00
2018-09-01T07:43:51.742Z,20544.00
2018-09-01T07:44:51.992Z,20064.00
2018-09-01T07:45:52.225Z,19552.00
2018-09-01T07:46:52.473Z,19136.00
2018-09-01T07:47:52.720Z,19072.00
2018-09-01T07:48:52.971Z,19232.00
2018-09-01T07:49:53.215Z,19200.00
2018-09-01T07:50:53.461Z,19136.00
2018-09-01T07:51:53.708Z,19840.00
2018-09-01T07:52:53.953Z,24288.00
2018-09-01T07:53:54.199Z,31072.00
2018-09-01T07:55:02.073Z,33824.00
2018-09-01T07:55:54.807Z,33184.00
2018-09-01T07:56:54.997Z,33344.00
2018-09-01T07:57:55.234Z,33792.00
2018-09-01T07:58:55.478Z,34432.00
2018-09-01T07:59:55.725Z,33504.00
2018-09-01T08:00:55.976Z,30976.00
2018-09-01T08:01:56.221Z,31104.00
2018-09-01T08:02:56.472Z,30848.00
2018-09-01T08:03:56.716Z,32960.00
2018-09-01T08:04:56.978Z,38688.00
2018-09-01T08:05:57.217Z,41696.00
2018-09-01T08:06:57.447Z,41120.00
2018-09-01T08:07:57.695Z,39840.00
2018-09-01T08:08:57.934Z,39296.00
2018-09-01T08:09:58.195Z,39968.00
2018-09-01T08:10:58.431Z,41280.00
2018-09-01T08:11:58.688Z,41824.00
2018-09-01T08:12:58.928Z,40960.00
2018-09-01T08:13:59.380Z,42432.00
2018-09-01T08:14:59.423Z,44512.00
2018-09-01T08:15:59.674Z,47072.00
2018-09-01T08:16:59.939Z,48128.00
2018-09-01T08:18:00.176Z,48480.00
2018-09-01T08:19:00.429Z,46560.00
2018-09-01T08:20:00.679Z,46944.00
2018-09-01T08:21:00.923Z,49504.00
2018-09-01T08:22:01.175Z,49600.00
2018-09-01T08:23:01.423Z,50976.00
2018-09-01T08:24:01.670Z,52352.00
2018-09-01T08:25:01.922Z,53056.00
2018-09-01T08:26:02.217Z,54656.00
2018-09-01T08:27:02.420Z,55328.00
2018-09-01T08:28:02.673Z,55936.00
2018-09-01T08:29:02.922Z,57184.00
2018-09-01T08:30:03.173Z,57440.00
2018-09-01T08:31:03.421Z,55392.00
2018-09-01T08:32:03.673Z,55904.00
2018-09-01T08:33:03.923Z,56320.00
2018-09-01T08:34:04.175Z,57504.00
2018-09-01T08:35:04.427Z,59968.00
2018-09-01T08:36:04.680Z,60384.00
2018-09-01T08:37:04.934Z,59520.00
2018-09-01T08:38:05.187Z,60992.00
2018-09-01T08:39:05.432Z,61984.00
2018-09-01T08:40:05.688Z,57792.00
2018-09-01T08:41:05.928Z,59712.00
2018-09-01T08:42:06.184Z,60288.00
2018-09-01T08:43:06.437Z,60672.00
2018-09-01T08:44:06.685Z,61728.00
2018-09-01T08:45:06.935Z,61440.00
2018-09-01T08:46:07.189Z,64480.00
2018-09-01T08:47:07.442Z,66048.00
2018-09-01T08:48:07.694Z,65920.00
2018-09-01T08:49:07.947Z,65184.00
2018-09-01T08:50:08.198Z,65760.00
2018-09-01T08:51:08.445Z,69536.00
2018-09-01T08:52:08.700Z,69984.00
2018-09-01T08:53:08.953Z,62976.00
2018-09-01T08:54:09.204Z,65184.00
2018-09-01T08:55:09.456Z,15984.00
2018-09-01T08:56:09.708Z,15620.00
2018-09-01T08:57:09.959Z,74400.00
2018-09-01T08:58:17.834Z,75584.00
2018-09-01T08:59:10.518Z,73760.00
2018-09-01T09:00:10.773Z,71968.00
2018-09-01T09:01:11.017Z,74656.00
2018-09-01T09:02:11.269Z,76672.00
2018-09-01T09:03:11.521Z,79360.00
2018-09-01T09:04:11.772Z,80480.00
2018-09-01T09:05:12.025Z,78208.00
2018-09-01T09:06:12.280Z,76576.00
2018-09-01T09:07:12.531Z,76096.00
2018-09-01T09:08:12.783Z,76032.00
2018-09-01T09:09:13.036Z,76512.00
2018-09-01T09:10:13.288Z,75136.00
2018-09-01T09:11:13.539Z,57600.00
2018-09-01T09:12:13.793Z,74592.00
2018-09-01T09:13:14.046Z,77568.00
2018-09-01T09:14:14.297Z,75680.00
2018-09-01T09:15:14.549Z,79968.00
2018-09-01T09:16:14.802Z,84288.00
2018-09-01T09:17:15.055Z,80640.00
2018-09-01T09:18:15.308Z,78976.00
2018-09-01T09:19:15.563Z,28832.00
2018-09-01T09:20:15.814Z,16484.00
2018-09-01T09:21:16.067Z,16764.00
2018-09-01T09:22:16.319Z,16716.00
2018-09-01T09:23:16.574Z,81568.00
2018-09-01T09:24:16.826Z,20224.00
2018-09-01T09:25:17.077Z,84896.00
2018-09-01T09:26:17.326Z,52864.00
2018-09-01T09:27:17.585Z,22688.00
2018-09-01T09:28:17.832Z,28800.00
2018-09-01T09:29:18.084Z,55392.00
2018-09-01T09:30:18.336Z,81824.00
2018-09-01T09:31:18.587Z,29696.00
2018-09-01T09:32:18.839Z,90752.00
2018-09-01T09:34:59.908Z,85536.00
2018-09-01T09:36:00.161Z,88544.00
2018-09-01T09:37:00.415Z,85152.00
2018-09-01T09:38:00.662Z,84960.00
2018-09-01T09:39:00.913Z,88736.00
2018-09-01T09:40:01.165Z,94560.00
2018-09-01T09:41:01.419Z,93184.00
2018-09-01T09:42:01.791Z,89888.00
2018-09-01T09:43:01.923Z,94432.00
2018-09-01T09:44:02.171Z,100256.00
2018-09-01T09:45:02.425Z,48160.00
2018-09-01T09:46:02.679Z,94464.00
2018-09-01T09:47:03.058Z,93568.00
2018-09-01T09:48:03.344Z,97536.00
2018-09-01T09:49:03.601Z,98272.00
2018-09-01T09:50:03.879Z,94368.00
2018-09-01T09:51:04.142Z,89760.00
2018-09-01T09:52:04.391Z,87808.00
2018-09-01T09:53:04.766Z,89600.00
2018-09-01T09:54:04.921Z,92704.00
2018-09-01T09:55:05.176Z,89408.00
2018-09-01T09:56:05.428Z,84000.00
2018-09-01T09:57:05.684Z,88512.00
2018-09-01T09:58:05.997Z,97536.00
2018-09-01T09:59:06.191Z,98720.00
2018-09-01T10:00:06.443Z,93056.00
2018-09-01T10:01:06.748Z,89504.00
2018-09-01T10:02:06.953Z,92320.00
2018-09-01T10:03:07.206Z,93312.00
2018-09-01T10:04:07.460Z,88864.00
2018-09-01T10:05:07.813Z,89216.00
2018-09-01T10:06:07.969Z,94816.00
2018-09-01T10:07:08.222Z,94208.00
2018-09-01T10:08:08.477Z,94496.00
2018-09-01T10:09:08.731Z,97056.00
2018-09-01T10:10:08.984Z,98464.00
2018-09-01T10:11:09.276Z,95840.00
2018-09-01T10:12:09.496Z,93504.00
2018-09-01T10:13:09.750Z,96992.00
2018-09-01T10:14:10.005Z,98816.00
2018-09-01T10:15:10.259Z,98432.00
2018-09-01T10:16:10.515Z,96416.00
2018-09-01T10:17:10.769Z,97408.00
2018-09-01T10:18:11.027Z,100800.00
2018-09-01T10:19:11.278Z,103136.00
2018-09-01T10:20:11.644Z,102880.00
2018-09-01T10:21:11.795Z,100800.00
2018-09-01T10:22:12.045Z,102208.00
2018-09-01T10:23:12.302Z,102112.00
2018-09-01T10:24:12.558Z,102368.00
2018-09-01T10:25:12.813Z,103008.00
2018-09-01T10:26:13.071Z,104640.00
2018-09-01T10:27:13.325Z,102880.00
2018-09-01T10:28:13.577Z,97568.00
2018-09-01T10:29:13.833Z,94304.00
2018-09-01T10:30:14.088Z,98048.00
2018-09-01T10:31:14.345Z,103584.00
2018-09-01T10:32:14.601Z,108288.00
2018-09-01T10:33:14.855Z,106656.00
2018-09-01T10:34:15.115Z,104352.00
2018-09-01T10:35:15.368Z,107872.00
2018-09-01T10:36:15.624Z,104640.00
2018-09-01T10:37:15.878Z,98464.00
2018-09-01T10:38:16.138Z,101216.00
2018-09-01T10:39:16.390Z,105952.00
2018-09-01T10:40:16.646Z,109408.00
2018-09-01T10:41:16.901Z,109184.00
2018-09-01T10:42:17.156Z,105824.00
2018-09-01T10:43:17.420Z,104864.00
2018-09-01T10:44:17.666Z,107904.00
2018-09-01T10:45:17.945Z,107936.00
2018-09-01T10:46:18.215Z,104032.00
2018-09-01T10:47:18.467Z,102304.00
2018-09-01T10:48:18.722Z,107968.00
2018-09-01T10:49:18.979Z,113056.00
2018-09-01T10:50:19.233Z,106528.00
2018-09-01T10:51:19.487Z,98624.00
2018-09-01T10:52:19.743Z,97600.00
2018-09-01T10:53:20.000Z,106848.00
2018-09-01T10:54:20.255Z,111136.00
2018-09-01T10:55:20.512Z,107200.00
2018-09-01T10:56:20.767Z,103424.00
2018-09-01T10:57:21.258Z,105824.00
2018-09-01T10:58:21.268Z,109344.00
2018-09-01T10:59:21.587Z,106688.00
2018-09-01T11:00:21.783Z,105184.00
2018-09-01T11:01:22.040Z,106816.00
2018-09-01T11:02:22.293Z,106752.00
2018-09-01T11:03:22.551Z,105024.00
2018-09-01T11:04:22.805Z,106112.00
2018-09-01T11:05:23.088Z,109824.00
2018-09-01T11:06:23.316Z,112832.00
2018-09-01T11:07:23.575Z,112192.00
2018-09-01T11:08:23.826Z,109120.00
2018-09-01T11:09:24.082Z,106112.00
2018-09-01T11:10:24.337Z,113824.00
2018-09-01T11:11:24.592Z,121984.00
2018-09-01T11:12:24.849Z,120704.00
2018-09-01T11:13:25.105Z,110784.00
2018-09-01T11:14:25.358Z,107008.00
2018-09-01T11:15:25.613Z,109120.00
2018-09-01T11:16:25.870Z,114688.00
2018-09-01T11:17:26.121Z,115584.00
2018-09-01T11:18:26.377Z,111584.00
2018-09-01T11:19:26.631Z,106656.00
2018-09-01T11:20:26.887Z,109856.00
2018-09-01T11:21:27.143Z,113920.00
2018-09-01T11:22:27.398Z,117504.00
2018-09-01T11:23:27.652Z,114400.00
2018-09-01T11:24:27.910Z,107712.00
2018-09-01T11:25:28.161Z,104416.00
2018-09-01T11:26:28.416Z,110336.00
2018-09-01T11:27:28.704Z,116416.00
2018-09-01T11:28:28.924Z,119616.00
2018-09-01T11:29:29.182Z,116704.00
2018-09-01T11:30:29.488Z,110880.00
2018-09-01T11:31:29.690Z,106208.00
2018-09-01T11:32:29.945Z,107104.00
2018-09-01T11:33:30.200Z,113248.00
2018-09-01T11:34:30.467Z,122944.00
2018-09-01T11:35:30.713Z,123392.00
2018-09-01T11:36:30.962Z,112768.00
2018-09-01T11:37:31.216Z,112256.00
2018-09-01T11:38:31.472Z,122144.00
2018-09-01T11:39:31.726Z,125600.00
2018-09-01T11:40:31.980Z,126112.00
2018-09-01T11:41:32.233Z,120960.00
2018-09-01T11:42:32.518Z,116480.00
2018-09-01T11:43:32.744Z,115712.00
2018-09-01T11:44:32.997Z,123360.00
2018-09-01T11:45:33.251Z,128704.00
2018-09-01T11:46:33.510Z,124384.00
2018-09-01T11:47:33.765Z,122560.00
2018-09-01T11:48:34.030Z,122336.00
2018-09-01T11:49:34.315Z,120896.00
2018-09-01T11:50:34.569Z,118272.00
2018-09-01T11:51:34.823Z,118720.00
2018-09-01T11:52:35.084Z,120672.00
2018-09-01T11:53:35.384Z,119296.00
2018-09-01T11:54:35.588Z,115136.00
2018-09-01T11:55:35.841Z,116096.00
2018-09-01T11:56:36.096Z,115872.00
2018-09-01T11:57:36.355Z,116128.00
2018-09-01T11:58:36.637Z,116064.00
2018-09-01T11:59:36.877Z,118464.00
2018-09-01T12:00:37.122Z,117184.00
2018-09-01T12:01:37.379Z,111808.00
2018-09-01T12:02:37.634Z,112640.00
2018-09-01T12:03:37.908Z,117024.00
2018-09-01T12:04:38.153Z,119200.00
2018-09-01T12:05:38.402Z,119200.00
2018-09-01T12:06:38.657Z,121152.00
2018-09-01T12:07:38.912Z,27936.00
2018-09-01T12:08:39.166Z,28896.00
2018-09-01T12:09:39.424Z,34656.00
2018-09-01T12:10:39.675Z,86016.00
2018-09-01T12:11:39.959Z,102336.00
2018-09-01T12:12:40.187Z,124160.00
2018-09-01T12:13:40.439Z,81888.00
2018-09-01T12:14:40.694Z,26400.00
2018-09-01T12:15:41.005Z,26176.00
2018-09-01T12:16:41.202Z,31680.00
2018-09-01T12:17:41.456Z,121792.00
2018-09-01T12:18:41.711Z,109184.00
2018-09-01T12:19:41.965Z,110944.00
2018-09-01T12:20:42.219Z,113280.00
2018-09-01T12:21:42.473Z,112704.00